sensor_id;sensor_type;location;lat;lon;timestamp;temperature;humidity
52024;DHT22;38038;45.922;13.604;2022-11-27T00:02:23;6.50;99.90
52024;DHT22;38038;45.922;13.604;2022-11-27T00:04:49;6.60;99.90
52024;DHT22;38038;45.922;13.604;2022-11-27T00:07:15;6.60;99.90
52024;DHT22;38038;45.922;13.604;2022-11-27T00:09:41;6.40;99.90
52024;DHT22;38038;45.922;13.604;2022-11-27T00:12:06;6.30;99.90
52024;DHT22;38038;45.922;13.604;2022-11-27T00:14:32;6.10;99.90
52024;DHT22;38038;45.922;13.604;2022-11-27T00:16:58;5.90;99.90
52024;DHT22;38038;45.922;13.604;2022-11-27T00:19:24;5.80;99.90
52024;DHT22;38038;45.922;13.604;2022-11-27T00:21:50;5.70;99.90
52024;DHT22;38038;45.922;13.604;2022-11-27T00:24:16;5.80;99.90
52024;DHT22;38038;45.922;13.604;2022-11-27T00:26:41;6.00;99.90
52024;DHT22;38038;45.922;13.604;2022-11-27T00:29:08;6.00;99.90
52024;DHT22;38038;45.922;13.604;2022-11-27T00:31:35;6.10;99.90
52024;DHT22;38038;45.922;13.604;2022-11-27T00:34:04;6.10;99.90
52024;DHT22;38038;45.922;13.604;2022-11-27T00:36:32;6.10;99.90
52024;DHT22;38038;45.922;13.604;2022-11-27T00:38:58;6.10;99.90
52024;DHT22;38038;45.922;13.604;2022-11-27T00:41:27;6.10;99.90
52024;DHT22;38038;45.922;13.604;2022-11-27T00:43:53;6.00;99.90
52024;DHT22;38038;45.922;13.604;2022-11-27T00:46:23;5.80;99.90
52024;DHT22;38038;45.922;13.604;2022-11-27T00:48:49;5.70;99.90
52024;DHT22;38038;45.922;13.604;2022-11-27T00:51:19;5.60;99.90
52024;DHT22;38038;45.922;13.604;2022-11-27T00:53:46;5.60;99.90
52024;DHT22;38038;45.922;13.604;2022-11-27T00:56:17;5.40;99.90
52024;DHT22;38038;45.922;13.604;2022-11-27T00:58:44;5.30;99.90
52024;DHT22;38038;45.922;13.604;2022-11-27T01:01:28;5.40;99.90
52024;DHT22;38038;45.922;13.604;2022-11-27T01:03:56;5.40;99.90
52024;DHT22;38038;45.922;13.604;2022-11-27T01:06:22;5.20;99.90
52024;DHT22;38038;45.922;13.604;2022-11-27T01:08:48;5.20;99.90
52024;DHT22;38038;45.922;13.604;2022-11-27T01:11:17;5.30;99.90
52024;DHT22;38038;45.922;13.604;2022-11-27T01:13:43;5.30;99.90
52024;DHT22;38038;45.922;13.604;2022-11-27T01:16:12;5.30;99.90
52024;DHT22;38038;45.922;13.604;2022-11-27T01:18:39;5.30;99.90
52024;DHT22;38038;45.922;13.604;2022-11-27T01:21:06;5.40;99.90
52024;DHT22;38038;45.922;13.604;2022-11-27T01:23:32;5.20;99.90
52024;DHT22;38038;45.922;13.604;2022-11-27T01:26:02;5.20;99.90
52024;DHT22;38038;45.922;13.604;2022-11-27T01:28:29;5.30;99.90
52024;DHT22;38038;45.922;13.604;2022-11-27T01:30:55;5.30;99.90
52024;DHT22;38038;45.922;13.604;2022-11-27T01:33:21;5.30;99.90
52024;DHT22;38038;45.922;13.604;2022-11-27T01:35:55;5.30;99.90
52024;DHT22;38038;45.922;13.604;2022-11-27T01:38:21;5.20;99.90
52024;DHT22;38038;45.922;13.604;2022-11-27T01:40:47;5.10;99.90
52024;DHT22;38038;45.922;13.604;2022-11-27T01:43:14;5.00;99.90
52024;DHT22;38038;45.922;13.604;2022-11-27T01:45:41;4.80;99.90
52024;DHT22;38038;45.922;13.604;2022-11-27T01:48:09;4.70;99.90
52024;DHT22;38038;45.922;13.604;2022-11-27T01:50:37;4.60;99.90
52024;DHT22;38038;45.922;13.604;2022-11-27T01:53:13;4.70;99.90
52024;DHT22;38038;45.922;13.604;2022-11-27T01:55:45;4.70;99.90
52024;DHT22;38038;45.922;13.604;2022-11-27T01:58:22;4.80;99.90
52024;DHT22;38038;45.922;13.604;2022-11-27T02:00:49;4.90;99.90
52024;DHT22;38038;45.922;13.604;2022-11-27T02:03:15;4.90;99.90
52024;DHT22;38038;45.922;13.604;2022-11-27T02:05:41;4.90;99.90
52024;DHT22;38038;45.922;13.604;2022-11-27T02:08:09;4.80;99.90
52024;DHT22;38038;45.922;13.604;2022-11-27T02:13:47;4.70;99.90
52024;DHT22;38038;45.922;13.604;2022-11-27T02:16:39;4.60;99.90
52024;DHT22;38038;45.922;13.604;2022-11-27T02:30:52;5.00;99.90
52024;DHT22;38038;45.922;13.604;2022-11-27T02:33:21;5.00;99.90
52024;DHT22;38038;45.922;13.604;2022-11-27T02:35:55;4.80;99.90
52024;DHT22;38038;45.922;13.604;2022-11-27T02:38:34;4.90;99.90
52024;DHT22;38038;45.922;13.604;2022-11-27T02:41:12;5.00;99.90
52024;DHT22;38038;45.922;13.604;2022-11-27T02:43:44;5.00;99.90
52024;DHT22;38038;45.922;13.604;2022-11-27T02:46:12;5.10;99.90
52024;DHT22;38038;45.922;13.604;2022-11-27T02:48:49;5.10;99.90
52024;DHT22;38038;45.922;13.604;2022-11-27T02:51:19;5.10;99.90
52024;DHT22;38038;45.922;13.604;2022-11-27T02:53:50;5.10;99.90
52024;DHT22;38038;45.922;13.604;2022-11-27T02:56:20;5.10;99.90
52024;DHT22;38038;45.922;13.604;2022-11-27T02:58:47;5.10;99.90
52024;DHT22;38038;45.922;13.604;2022-11-27T03:01:17;5.10;99.90
52024;DHT22;38038;45.922;13.604;2022-11-27T03:03:46;4.90;99.90
52024;DHT22;38038;45.922;13.604;2022-11-27T03:06:18;4.90;99.90
52024;DHT22;38038;45.922;13.604;2022-11-27T03:09:02;4.80;99.90
52024;DHT22;38038;45.922;13.604;2022-11-27T03:11:29;4.80;99.90
52024;DHT22;38038;45.922;13.604;2022-11-27T03:13:58;4.80;99.90
52024;DHT22;38038;45.922;13.604;2022-11-27T03:19:24;4.80;99.90
52024;DHT22;38038;45.922;13.604;2022-11-27T03:21:51;4.70;99.90
52024;DHT22;38038;45.922;13.604;2022-11-27T03:24:18;4.70;99.90
52024;DHT22;38038;45.922;13.604;2022-11-27T03:26:44;4.80;99.90
52024;DHT22;38038;45.922;13.604;2022-11-27T03:29:20;5.00;99.90
52024;DHT22;38038;45.922;13.604;2022-11-27T03:31:48;5.10;99.90
52024;DHT22;38038;45.922;13.604;2022-11-27T03:34:14;5.00;99.90
52024;DHT22;38038;45.922;13.604;2022-11-27T23:34:19;3.20;99.90
52024;DHT22;38038;45.922;13.604;2022-11-27T23:36:45;3.10;99.90
52024;DHT22;38038;45.922;13.604;2022-11-27T23:39:12;2.70;99.90
52024;DHT22;38038;45.922;13.604;2022-11-27T23:41:38;2.30;99.90
52024;DHT22;38038;45.922;13.604;2022-11-27T23:44:05;2.20;99.90
52024;DHT22;38038;45.922;13.604;2022-11-27T23:46:30;2.00;99.90
52024;DHT22;38038;45.922;13.604;2022-11-27T23:48:58;1.80;99.90
52024;DHT22;38038;45.922;13.604;2022-11-27T23:51:27;1.80;99.90
52024;DHT22;38038;45.922;13.604;2022-11-27T23:53:54;1.70;99.90
52024;DHT22;38038;45.922;13.604;2022-11-27T23:56:25;1.80;99.90
52024;DHT22;38038;45.922;13.604;2022-11-27T23:58:52;1.90;99.90
